createdAt,value
2022-10-05T00:00:54.805Z,101645.91
2022-10-05T00:03:25.413Z,101652.53
2022-10-05T00:05:53.760Z,101657.81
2022-10-05T00:08:25.693Z,101662.09
2022-10-05T00:10:53.687Z,101661.53
2022-10-05T00:13:27.124Z,101660.16
2022-10-05T00:16:13.744Z,101660.59
2022-10-05T00:18:42.629Z,101655.41
2022-10-05T00:21:29.233Z,101665.78
2022-10-05T00:23:58.195Z,101656.00
2022-10-05T00:26:27.748Z,101666.41
2022-10-05T00:28:55.297Z,101668.66
2022-10-05T00:31:26.924Z,101668.94
2022-10-05T00:33:55.767Z,101666.44
2022-10-05T00:36:23.787Z,101669.41
2022-10-05T00:38:51.775Z,101670.22
2022-10-05T00:41:39.137Z,101676.59
2022-10-05T00:44:24.312Z,101673.47
2022-10-05T00:47:01.366Z,101664.09
2022-10-05T00:49:31.693Z,101672.34
2022-10-05T00:52:31.860Z,101685.38
2022-10-05T00:55:05.592Z,101675.50
2022-10-05T00:57:45.871Z,101677.50
2022-10-05T01:00:19.067Z,101673.13
2022-10-05T01:03:02.329Z,101670.06
2022-10-05T01:05:49.820Z,101670.47
2022-10-05T01:08:23.558Z,101665.44
2022-10-05T01:11:06.125Z,101663.53
2022-10-05T01:14:07.703Z,101661.94
2022-10-05T01:16:56.211Z,101661.81
2022-10-05T01:19:51.060Z,101653.13
2022-10-05T01:22:27.533Z,101647.28
2022-10-05T01:24:55.369Z,101650.13
2022-10-05T01:27:38.304Z,101642.41
2022-10-05T01:30:12.307Z,101641.53
2022-10-05T01:33:01.995Z,101645.50
2022-10-05T01:35:42.164Z,101652.84
2022-10-05T01:38:24.210Z,101663.16
2022-10-05T01:41:06.983Z,101666.47
2022-10-05T01:43:39.252Z,101661.81
2022-10-05T01:46:26.602Z,101667.19
2022-10-05T01:49:12.771Z,101661.41
2022-10-05T01:51:59.020Z,101666.47
2022-10-05T01:54:29.289Z,101667.97
2022-10-05T01:57:27.733Z,101675.88
2022-10-05T02:00:06.190Z,101676.47
2022-10-05T02:03:18.167Z,101679.72
2022-10-05T02:06:06.500Z,101682.97
2022-10-05T02:08:47.757Z,101695.09
2022-10-05T02:11:18.349Z,101688.94
2022-10-05T02:14:06.819Z,101695.50
2022-10-05T02:16:40.459Z,101696.94
2022-10-05T02:19:18.521Z,101693.19
2022-10-05T02:21:54.569Z,101686.81
2022-10-05T02:24:27.212Z,101695.94
2022-10-05T02:26:56.704Z,101694.69
2022-10-05T02:29:30.406Z,101705.50
2022-10-05T02:32:04.469Z,101696.00
2022-10-05T02:34:41.823Z,101701.53
2022-10-05T02:38:01.775Z,101704.37
2022-10-05T02:41:19.943Z,101713.03
2022-10-05T02:44:05.800Z,101712.75
2022-10-05T02:46:41.693Z,101712.56
2022-10-05T02:49:36.002Z,101713.03
2022-10-05T02:52:16.722Z,101706.94
2022-10-05T02:55:10.413Z,101708.63
2022-10-05T02:57:47.237Z,101722.69
2022-10-05T03:00:23.449Z,101718.00
2022-10-05T03:03:14.063Z,101719.53
2022-10-05T03:05:51.491Z,101722.84
2022-10-05T03:08:27.501Z,101724.06
2022-10-05T03:11:10.429Z,101723.19
2022-10-05T03:13:38.009Z,101722.28
2022-10-05T03:16:08.669Z,101725.78
2022-10-05T03:19:03.428Z,101721.03
2022-10-05T03:22:11.199Z,101721.97
2022-10-05T03:24:51.909Z,101726.41
2022-10-05T03:27:29.037Z,101726.75
2022-10-05T03:30:08.258Z,101722.41
2022-10-05T03:32:54.834Z,101726.81
2022-10-05T03:35:35.547Z,101724.09
2022-10-05T03:38:22.074Z,101734.63
2022-10-05T03:40:59.489Z,101728.28
2022-10-05T03:43:53.512Z,101725.09
2022-10-05T03:46:36.662Z,101727.12
2022-10-05T03:49:11.014Z,101722.81
2022-10-05T03:51:45.664Z,101732.44
2022-10-05T03:54:24.609Z,101737.50
2022-10-05T03:57:00.493Z,101737.09
2022-10-05T03:59:38.087Z,101731.31
2022-10-05T04:02:13.136Z,101735.44
2022-10-05T04:04:49.803Z,101731.06
2022-10-05T04:07:46.839Z,101732.94
2022-10-05T04:10:27.078Z,101746.31
2022-10-05T04:13:24.519Z,101742.28
2022-10-05T04:16:14.561Z,101737.09
2022-10-05T04:18:57.986Z,101734.06
2022-10-05T04:21:32.468Z,101723.66
2022-10-05T04:24:16.256Z,101735.37
2022-10-05T04:27:15.244Z,101735.94
2022-10-05T04:30:05.279Z,101743.50
2022-10-05T04:32:41.991Z,101740.44
2022-10-05T04:35:29.818Z,101742.37
2022-10-05T04:38:23.309Z,101740.12
2022-10-05T04:41:09.548Z,101739.94
2022-10-05T04:44:13.024Z,101746.34
2022-10-05T04:47:16.546Z,101745.91
2022-10-05T04:50:07.940Z,101750.94
2022-10-05T04:52:53.620Z,101762.34
2022-10-05T04:55:40.205Z,101761.88
2022-10-05T04:58:20.023Z,101770.19
2022-10-05T05:00:51.021Z,101775.22
2022-10-05T05:03:34.835Z,101779.25
2022-10-05T05:06:32.729Z,101784.69
2022-10-05T05:09:09.453Z,101782.13
2022-10-05T05:12:03.789Z,101779.97
2022-10-05T05:14:57.059Z,101781.53
2022-10-05T05:17:47.667Z,101782.19
2022-10-05T05:20:22.694Z,101784.12
2022-10-05T05:22:50.479Z,101783.44
2022-10-05T05:25:19.049Z,101780.09
2022-10-05T05:28:23.453Z,101795.63
2022-10-05T05:31:11.053Z,101800.41
2022-10-05T05:33:55.231Z,101795.81
2022-10-05T05:36:50.004Z,101783.81
2022-10-05T05:39:37.232Z,101791.41
2022-10-05T05:42:08.118Z,101792.03
2022-10-05T05:44:44.160Z,101791.47
2022-10-05T05:47:23.366Z,101793.25
2022-10-05T05:50:10.329Z,101794.41
2022-10-05T05:52:43.261Z,101789.75
2022-10-05T05:55:30.348Z,101794.47
2022-10-05T05:58:20.596Z,101793.47
2022-10-05T06:00:59.323Z,101793.91
2022-10-05T06:03:43.325Z,101790.72
2022-10-05T06:06:15.738Z,101781.91
2022-10-05T06:08:56.759Z,101783.91
2022-10-05T06:11:41.250Z,101785.31
2022-10-05T06:14:17.209Z,101787.22
2022-10-05T06:16:51.964Z,101786.56
2022-10-05T06:19:23.822Z,101793.84
2022-10-05T06:22:09.252Z,101791.47
2022-10-05T06:24:49.970Z,101789.50
2022-10-05T06:27:34.299Z,101803.31
2022-10-05T06:30:17.046Z,101806.66
2022-10-05T06:32:50.869Z,101801.22
2022-10-05T06:35:48.273Z,101819.53
2022-10-05T06:38:41.002Z,101823.28
2022-10-05T06:41:27.478Z,101823.22
2022-10-05T06:43:56.145Z,101831.34
2022-10-05T06:46:36.328Z,101830.59
2022-10-05T06:49:18.215Z,101828.78
2022-10-05T06:51:46.202Z,101832.91
2022-10-05T06:54:28.146Z,101828.62
2022-10-05T06:57:23.813Z,101825.81
2022-10-05T07:00:03.995Z,101831.50
2022-10-05T07:02:46.769Z,101832.12
2022-10-05T07:05:33.240Z,101835.00
2022-10-05T07:08:20.549Z,101845.16
2022-10-05T07:10:58.867Z,101854.59
2022-10-05T07:14:01.741Z,101870.25
2022-10-05T07:16:45.747Z,101880.59
2022-10-05T07:19:26.165Z,101886.69
2022-10-05T07:22:33.484Z,101877.56
2022-10-05T07:25:15.177Z,101881.28
2022-10-05T07:28:05.527Z,101888.47
2022-10-05T07:30:48.138Z,101902.00
2022-10-05T07:33:38.159Z,101907.97
2022-10-05T07:36:43.161Z,101914.25
2022-10-05T07:39:23.656Z,101921.44
2022-10-05T07:42:20.186Z,101938.56
2022-10-05T07:44:58.866Z,101939.31
2022-10-05T07:47:38.659Z,101943.28
2022-10-05T07:50:18.799Z,101944.16
2022-10-05T07:53:00.802Z,101943.78
2022-10-05T07:55:40.830Z,101952.50
2022-10-05T07:58:23.586Z,101950.62
2022-10-05T08:01:04.734Z,101949.72
2022-10-05T08:03:33.352Z,101954.19
2022-10-05T08:06:03.960Z,101962.31
2022-10-05T08:09:09.939Z,101954.09
2022-10-05T08:11:49.104Z,101953.28
2022-10-05T08:14:33.808Z,101944.41
2022-10-05T08:17:16.433Z,101943.03
2022-10-05T08:19:50.742Z,101929.09
2022-10-05T08:22:33.653Z,101920.44
2022-10-05T08:25:05.916Z,101913.91
2022-10-05T08:27:45.440Z,101911.16
2022-10-05T08:30:15.913Z,101918.00
2022-10-05T08:32:55.293Z,101913.56
2022-10-05T08:35:44.046Z,101913.19
2022-10-05T08:38:16.746Z,101909.38
2022-10-05T08:40:47.126Z,101909.13
2022-10-05T08:43:49.330Z,101910.66
2022-10-05T08:46:32.375Z,101893.84
2022-10-05T08:49:19.244Z,101893.75
2022-10-05T08:52:00.514Z,101895.41
2022-10-05T08:54:28.338Z,101894.44
2022-10-05T08:57:21.708Z,101886.66
2022-10-05T09:00:05.211Z,101910.19
2022-10-05T09:02:55.741Z,101902.81
2022-10-05T09:05:38.812Z,101899.94
2022-10-05T09:08:34.411Z,101898.09
2022-10-05T09:11:05.928Z,101912.25
2022-10-05T09:14:27.992Z,101923.66
2022-10-05T09:17:01.906Z,101926.94
2022-10-05T09:19:50.905Z,101944.94
2022-10-05T09:22:56.258Z,101939.72
2022-10-05T09:25:28.425Z,101931.63
2022-10-05T09:28:04.142Z,101931.91
2022-10-05T09:30:46.918Z,101932.84
2022-10-05T09:33:39.426Z,101920.53
2022-10-05T09:36:21.988Z,101921.28
2022-10-05T09:39:28.269Z,101912.47
2022-10-05T09:42:32.543Z,101901.47
2022-10-05T09:45:28.139Z,101907.47
2022-10-05T09:48:29.810Z,101908.63
2022-10-05T09:51:14.030Z,101907.91
2022-10-05T09:54:10.652Z,101904.50
2022-10-05T09:56:53.821Z,101904.25
2022-10-05T09:59:46.367Z,101901.56
2022-10-05T10:02:23.072Z,101899.31
2022-10-05T10:05:09.177Z,101903.00
2022-10-05T10:08:20.473Z,101884.22
2022-10-05T10:11:23.486Z,101892.25
2022-10-05T10:14:09.395Z,101896.34
2022-10-05T10:17:09.885Z,101902.72
2022-10-05T10:20:15.002Z,101890.87
2022-10-05T10:22:57.705Z,101889.84
2022-10-05T10:26:13.015Z,101893.12
2022-10-05T10:28:40.924Z,101888.88
2022-10-05T10:31:20.782Z,101883.94
2022-10-05T10:34:30.224Z,101887.31
2022-10-05T10:37:25.430Z,101895.00
2022-10-05T10:40:37.058Z,101892.66
2022-10-05T10:43:07.478Z,101893.47
2022-10-05T10:46:09.544Z,101894.69
2022-10-05T10:48:52.065Z,101896.84
2022-10-05T10:51:57.533Z,101894.28
2022-10-05T10:54:39.938Z,101897.81
2022-10-05T10:57:17.010Z,101900.09
2022-10-05T11:00:19.270Z,101901.09
2022-10-05T11:03:09.134Z,101900.87
2022-10-05T11:05:48.806Z,101886.78
2022-10-05T11:08:54.160Z,101887.13
2022-10-05T11:11:47.644Z,101885.59
2022-10-05T11:14:41.662Z,101878.66
2022-10-05T11:17:31.743Z,101889.34
2022-10-05T11:20:25.140Z,101872.81
2022-10-05T11:23:17.884Z,101872.31
2022-10-05T11:26:11.363Z,101882.03
2022-10-05T11:28:50.979Z,101883.47
2022-10-05T11:31:40.546Z,101890.19
2022-10-05T11:34:20.363Z,101887.37
2022-10-05T11:37:31.786Z,101882.56
2022-10-05T11:40:37.850Z,101880.38
2022-10-05T11:43:40.138Z,101876.91
2022-10-05T11:46:16.680Z,101873.19
2022-10-05T11:49:06.881Z,101872.84
2022-10-05T11:51:43.615Z,101873.69
2022-10-05T11:54:17.606Z,101873.44
2022-10-05T11:57:02.120Z,101872.53
2022-10-05T11:59:40.634Z,101865.91
2022-10-05T12:02:31.341Z,101868.38
2022-10-05T12:05:21.193Z,101865.00
2022-10-05T12:08:12.729Z,101865.56
2022-10-05T12:11:05.201Z,101853.94
2022-10-05T12:14:05.530Z,101854.66
2022-10-05T12:16:55.612Z,101856.41
2022-10-05T12:19:31.695Z,101851.25
2022-10-05T12:22:11.167Z,101854.09
2022-10-05T12:24:39.068Z,101844.47
2022-10-05T12:27:07.405Z,101844.63
2022-10-05T12:29:44.331Z,101848.88
2022-10-05T12:32:23.764Z,101844.63
2022-10-05T12:35:43.771Z,101845.41
2022-10-05T12:38:24.361Z,101844.19
2022-10-05T12:41:10.763Z,101840.22
2022-10-05T12:43:58.877Z,101841.22
2022-10-05T12:46:38.666Z,101838.72
2022-10-05T12:49:18.424Z,101830.81
2022-10-05T12:51:59.219Z,101834.00
2022-10-05T12:54:45.856Z,101819.53
2022-10-05T12:57:19.208Z,101814.66
2022-10-05T13:00:17.858Z,101808.19
2022-10-05T13:02:55.453Z,101816.50
2022-10-05T13:05:31.717Z,101817.38
2022-10-05T13:08:24.478Z,101817.53
2022-10-05T13:11:17.471Z,101826.09
2022-10-05T13:14:38.452Z,101818.81
2022-10-05T13:17:26.387Z,101810.19
2022-10-05T13:20:03.205Z,101812.91
2022-10-05T13:22:34.891Z,101800.78
2022-10-05T13:25:15.060Z,101801.78
2022-10-05T13:27:57.841Z,101803.13
2022-10-05T13:30:25.575Z,101784.28
2022-10-05T13:33:04.699Z,101787.56
2022-10-05T13:36:07.527Z,101788.09
2022-10-05T13:38:43.660Z,101789.97
2022-10-05T13:41:50.248Z,101789.06
2022-10-05T13:45:01.260Z,101792.81
2022-10-05T13:47:38.874Z,101783.84
2022-10-05T13:50:21.865Z,101783.97
2022-10-05T13:53:04.779Z,101786.09
2022-10-05T13:55:51.489Z,101788.03
2022-10-05T13:58:24.028Z,101783.63
2022-10-05T14:00:59.937Z,101778.81
2022-10-05T14:03:32.579Z,101778.31
2022-10-05T14:06:03.680Z,101783.25
2022-10-05T14:08:45.925Z,101780.25
2022-10-05T14:11:32.602Z,101781.69
2022-10-05T14:14:04.634Z,101779.47
2022-10-05T14:16:33.621Z,101778.75
2022-10-05T14:19:05.003Z,101784.44
2022-10-05T14:21:47.357Z,101781.84
2022-10-05T14:24:43.297Z,101777.69
2022-10-05T14:27:23.466Z,101775.66
2022-10-05T14:30:28.142Z,101785.78
2022-10-05T14:33:06.783Z,101784.47
2022-10-05T14:35:37.207Z,101779.81
2022-10-05T14:38:22.707Z,101780.97
2022-10-05T14:41:27.514Z,101784.38
2022-10-05T14:44:13.291Z,101775.72
2022-10-05T14:46:55.661Z,101774.28
2022-10-05T14:49:27.699Z,101783.34
2022-10-05T14:51:56.713Z,101786.34
2022-10-05T14:55:08.447Z,101794.03
2022-10-05T14:58:02.028Z,101800.56
2022-10-05T15:00:38.494Z,101814.13
2022-10-05T15:10:27.153Z,101783.69
2022-10-05T15:13:16.264Z,101776.16
2022-10-05T15:15:56.426Z,101782.59
2022-10-05T15:18:32.196Z,101776.25
2022-10-05T15:21:24.878Z,101777.47
2022-10-05T15:24:19.454Z,101776.91
2022-10-05T15:26:56.482Z,101772.13
2022-10-05T15:29:36.184Z,101776.88
2022-10-05T15:32:14.542Z,101773.19
2022-10-05T15:35:07.432Z,101783.41
2022-10-05T15:37:44.942Z,101780.91
2022-10-05T15:40:39.062Z,101783.06
2022-10-05T15:43:13.925Z,101783.72
2022-10-05T15:46:16.974Z,101783.41
2022-10-05T15:49:16.264Z,101796.44
2022-10-05T15:51:57.201Z,101784.06
2022-10-05T15:54:55.892Z,101792.56
2022-10-05T15:58:08.434Z,101789.25
2022-10-05T16:01:05.805Z,101793.41
2022-10-05T16:03:54.329Z,101786.06
2022-10-05T16:06:56.551Z,101788.00
2022-10-05T16:09:42.641Z,101792.22
2022-10-05T16:12:12.769Z,101800.66
2022-10-05T16:14:55.094Z,101803.28
2022-10-05T16:17:53.440Z,101799.87
2022-10-05T16:20:34.385Z,101803.78
2022-10-05T16:23:25.410Z,101802.44
2022-10-05T16:26:15.196Z,101804.34
2022-10-05T16:29:13.091Z,101808.56
2022-10-05T16:32:00.323Z,101807.00
2022-10-05T16:34:56.267Z,101810.41
2022-10-05T16:37:43.053Z,101806.22
2022-10-05T16:40:41.680Z,101807.00
2022-10-05T16:43:27.620Z,101814.88
2022-10-05T16:46:13.599Z,101824.62
2022-10-05T16:48:41.491Z,101811.75
2022-10-05T16:51:27.310Z,101819.09
2022-10-05T16:53:59.229Z,101813.06
2022-10-05T16:56:37.646Z,101817.25
2022-10-05T16:59:32.289Z,101817.00
2022-10-05T17:02:24.467Z,101817.50
2022-10-05T17:05:24.130Z,101822.75
2022-10-05T17:08:26.711Z,101824.69
2022-10-05T17:11:19.666Z,101822.53
2022-10-05T17:13:50.086Z,101814.72
2022-10-05T17:16:30.678Z,101811.34
2022-10-05T17:19:20.924Z,101813.84
2022-10-05T17:22:00.555Z,101816.19
2022-10-05T17:25:00.724Z,101816.50
2022-10-05T17:27:50.949Z,101816.50
2022-10-05T17:30:22.039Z,101816.97
2022-10-05T17:33:04.711Z,101816.25
2022-10-05T17:36:08.534Z,101815.81
2022-10-05T17:39:12.305Z,101829.78
2022-10-05T17:41:40.129Z,101831.59
2022-10-05T17:44:16.030Z,101833.78
2022-10-05T17:46:51.437Z,101831.66
2022-10-05T17:49:38.126Z,101829.91
2022-10-05T17:52:40.836Z,101830.13
2022-10-05T17:55:36.050Z,101837.94
2022-10-05T17:58:29.070Z,101830.63
2022-10-05T18:00:57.195Z,101841.81
2022-10-05T18:03:41.845Z,101841.09
2022-10-05T18:06:32.804Z,101839.19
2022-10-05T18:09:22.785Z,101835.34
2022-10-05T18:12:18.013Z,101836.41
2022-10-05T18:14:58.287Z,101837.25
2022-10-05T18:17:45.420Z,101840.13
2022-10-05T18:20:34.736Z,101847.06
2022-10-05T18:23:09.696Z,101840.97
2022-10-05T18:25:38.297Z,101838.22
2022-10-05T18:28:31.173Z,101850.34
2022-10-05T18:31:17.201Z,101845.88
2022-10-05T18:34:14.707Z,101844.31
2022-10-05T18:37:00.888Z,101852.34
2022-10-05T18:39:53.270Z,101845.50
2022-10-05T18:42:56.349Z,101861.59
2022-10-05T18:45:26.260Z,101853.81
2022-10-05T18:48:06.713Z,101852.44
2022-10-05T18:50:42.216Z,101847.66
2022-10-05T18:53:56.184Z,101847.37
2022-10-05T18:56:42.618Z,101844.44
2022-10-05T18:59:19.338Z,101847.16
2022-10-05T19:01:58.228Z,101849.72
2022-10-05T19:04:44.956Z,101843.06
2022-10-05T19:07:28.822Z,101840.66
2022-10-05T19:10:26.624Z,101844.97
2022-10-05T19:13:15.831Z,101842.00
2022-10-05T19:15:59.123Z,101842.75
2022-10-05T19:18:57.703Z,101844.63
2022-10-05T19:22:10.419Z,101841.22
2022-10-05T19:25:15.171Z,101842.50
2022-10-05T19:28:01.597Z,101838.34
2022-10-05T19:30:51.099Z,101836.16
2022-10-05T19:33:56.576Z,101835.50
2022-10-05T19:37:01.999Z,101839.25
2022-10-05T19:39:38.651Z,101835.66
2022-10-05T19:42:14.970Z,101832.31
2022-10-05T19:44:58.182Z,101832.41
2022-10-05T19:47:53.396Z,101839.31
2022-10-05T19:50:30.862Z,101838.22
2022-10-05T19:53:13.007Z,101839.25
2022-10-05T19:55:47.126Z,101841.94
2022-10-05T19:58:26.277Z,101832.19
2022-10-05T20:01:04.993Z,101838.34
2022-10-05T20:03:36.744Z,101838.94
2022-10-05T20:06:07.043Z,101840.75
2022-10-05T20:08:44.384Z,101838.25
2022-10-05T20:11:14.708Z,101842.00
2022-10-05T20:13:47.082Z,101839.16
2022-10-05T20:16:36.371Z,101847.00
2022-10-05T20:19:52.533Z,101843.16
2022-10-05T20:22:35.101Z,101841.28
2022-10-05T20:25:31.156Z,101843.59
2022-10-05T20:27:59.026Z,101845.81
2022-10-05T20:30:29.131Z,101837.66
2022-10-05T20:32:59.700Z,101836.66
2022-10-05T20:35:30.852Z,101829.87
2022-10-05T20:38:01.917Z,101842.22
2022-10-05T20:40:30.383Z,101841.91
2022-10-05T20:42:58.867Z,101845.31
2022-10-05T20:45:26.587Z,101842.34
2022-10-05T20:47:55.110Z,101843.09
2022-10-05T20:50:22.882Z,101842.59
2022-10-05T20:52:50.473Z,101849.16
2022-10-05T20:55:18.423Z,101842.53
2022-10-05T20:57:47.389Z,101838.62
2022-10-05T21:00:15.164Z,101843.25
2022-10-05T21:02:43.010Z,101845.50
2022-10-05T21:05:10.741Z,101850.75
2022-10-05T21:07:38.447Z,101841.69
2022-10-05T21:10:07.225Z,101845.56
2022-10-05T21:12:35.069Z,101849.56
2022-10-05T21:15:04.806Z,101837.53
2022-10-05T21:17:35.204Z,101848.91
2022-10-05T21:20:04.021Z,101848.53
2022-10-05T21:22:32.378Z,101842.44
2022-10-05T21:25:00.204Z,101845.69
2022-10-05T21:27:28.250Z,101840.56
2022-10-05T21:29:58.089Z,101842.41
2022-10-05T21:32:25.708Z,101843.13
2022-10-05T21:34:53.344Z,101843.25
2022-10-05T21:37:21.258Z,101844.91
2022-10-05T21:39:48.920Z,101847.59
2022-10-05T21:42:16.538Z,101845.44
2022-10-05T21:44:44.522Z,101840.03
2022-10-05T21:47:12.685Z,101839.72
2022-10-05T21:49:41.602Z,101839.47
2022-10-05T21:52:09.561Z,101838.13
2022-10-05T21:54:37.203Z,101841.13
2022-10-05T21:57:05.253Z,101848.19
2022-10-05T21:59:34.466Z,101839.25
2022-10-05T22:02:02.459Z,101825.19
2022-10-05T22:04:30.344Z,101820.25
2022-10-05T22:06:58.069Z,101827.34
2022-10-05T22:09:25.669Z,101829.44
2022-10-05T22:11:53.549Z,101831.34
2022-10-05T22:14:21.202Z,101826.03
2022-10-05T22:16:49.170Z,101829.25
2022-10-05T22:19:20.014Z,101826.63
2022-10-05T22:21:47.659Z,101822.59
2022-10-05T22:24:15.365Z,101824.88
2022-10-05T22:26:46.717Z,101828.41
2022-10-05T22:29:16.194Z,101825.72
2022-10-05T22:31:48.462Z,101829.53
2022-10-05T22:34:16.898Z,101837.88
2022-10-05T22:36:50.036Z,101832.88
2022-10-05T22:39:17.923Z,101831.25
2022-10-05T22:41:46.021Z,101833.75
2022-10-05T22:44:13.815Z,101837.66
2022-10-05T22:46:41.527Z,101837.88
2022-10-05T22:49:09.571Z,101836.66
2022-10-05T22:51:37.227Z,101840.09
2022-10-05T22:58:30.987Z,101834.22
2022-10-05T23:01:08.375Z,101841.97
2022-10-05T23:03:36.310Z,101838.09
2022-10-05T23:06:13.559Z,101836.69
2022-10-05T23:08:42.444Z,101832.50
2022-10-05T23:11:18.480Z,101838.22
2022-10-05T23:13:46.136Z,101836.53
2022-10-05T23:16:16.755Z,101842.12
2022-10-05T23:18:46.971Z,101845.22
2022-10-05T23:21:15.717Z,101838.16
2022-10-05T23:23:47.453Z,101832.72
2022-10-05T23:26:16.479Z,101836.38
2022-10-05T23:28:47.295Z,101838.28
2022-10-05T23:31:17.733Z,101833.81
2022-10-05T23:33:45.512Z,101838.00
2022-10-05T23:36:14.678Z,101838.31
2022-10-05T23:38:42.625Z,101841.16
2022-10-05T23:41:11.076Z,101830.06
2022-10-05T23:43:39.096Z,101829.06
2022-10-05T23:46:07.691Z,101827.53
2022-10-05T23:48:39.216Z,101836.81
2022-10-05T23:51:08.783Z,101833.81
2022-10-05T23:53:37.094Z,101833.59
2022-10-05T23:56:05.137Z,101832.91
2022-10-05T23:58:33.321Z,101836.69
